Data for 03/16/2005

Time Sea-Level Adjusted Pressure Absolute Pressure Temperature Relative Humidity Dew Point   
(mb) (inHg) (mb) (inHg) (C) (F) (%) (C) (F)
00:05 1012 29.88 841 24.83 1.7 35.1 65 -4.1 24.7
00:10 1012 29.88 841 24.83 2 35.6 63 -4.3 24.3
00:15 1012 29.88 841 24.83 2.2 36 65 -3.8 25.2
00:20 1011 29.85 841 24.83 2.2 35.9 64 -4 24.9
00:25 1011 29.85 841 24.83 2.2 36 64 -3.8 25.2
00:30 1011 29.85 841 24.83 2.2 36 64 -3.8 25.1
00:35 1011 29.85 841 24.83 2.1 35.8 64 -4 24.7
00:40 1011 29.85 841 24.83 2.2 36 63 -4.1 24.6
00:45 1011 29.85 841 24.83 2.3 36.2 65 -3.6 25.5
00:50 1011 29.85 841 24.83 2.1 35.9 66 -3.6 25.5
00:55 1011 29.85 841 24.83 2.1 35.8 64 -3.9 25
01:00 1011 29.85 840 24.81 2.1 35.8 65 -3.7 25.4
01:05 1011 29.85 840 24.81 2 35.6 64 -4.2 24.5
01:10 1011 29.85 840 24.81 2.1 35.8 63 -4.2 24.4
01:15 1011 29.85 840 24.81 2.3 36.1 63 -4 24.8
01:20 1011 29.85 840 24.81 2.3 36.1 64 -3.9 25
01:25 1011 29.85 841 24.83 2.3 36.2 63 -4 24.8
01:30 1011 29.85 841 24.83 2.4 36.3 63 -3.9 24.9
01:35 1011 29.85 841 24.83 2.3 36.1 64 -3.9 25
01:40 1012 29.88 841 24.83 2.3 36.1 63 -4 24.8
01:45 1011 29.85 841 24.83 2.4 36.3 62 -4.2 24.4
01:50 1011 29.85 841 24.83 2.7 36.8 60 -4.4 24
01:55 1011 29.85 841 24.83 2.8 37 58 -4.7 23.6
02:00 1011 29.85 841 24.83 2.9 37.2 58 -4.7 23.6
02:05 1011 29.85 841 24.83 3.1 37.5 57 -4.6 23.6
02:10 1011 29.85 841 24.83 3.1 37.5 57 -4.7 23.5
02:15 1011 29.85 841 24.83 3.1 37.6 57 -4.7 23.6
02:20 1011 29.85 841 24.83 3.1 37.5 58 -4.5 23.9
02:25 1011 29.85 841 24.83 3 37.4 58 -4.4 24
02:30 1011 29.85 841 24.83 2.9 37.3 59 -4.3 24.2
02:35 1011 29.85 841 24.83 2.8 37 60 -4.2 24.4
02:40 1011 29.85 841 24.83 2.7 36.9 60 -4.2 24.4
02:45 1011 29.85 841 24.83 2.6 36.7 61 -4.1 24.6
02:50 1011 29.85 841 24.83 2.6 36.6 61 -4.2 24.5
02:55 1011 29.85 841 24.83 2.5 36.5 61 -4.2 24.5
03:00 1011 29.85 841 24.83 2.3 36.2 62 -4.3 24.3
03:05 1011 29.85 841 24.83 2.2 35.9 62 -4.3 24.3
03:10 1011 29.85 841 24.83 2.1 35.8 62 -4.3 24.2
03:15 1011 29.85 840 24.81 2 35.7 62 -4.5 23.9
03:20 1011 29.85 840 24.81 2.1 35.7 62 -4.5 23.9
03:25 1011 29.85 840 24.81 2 35.7 58 -5.3 22.5
03:30 1011 29.85 841 24.83 2.3 36.2 58 -5.2 22.6
03:35 1011 29.85 841 24.83 2.5 36.6 57 -5.2 22.6
03:40 1011 29.85 841 24.83 2.7 36.9 55 -5.5 22.1
03:45 1011 29.85 841 24.83 2.9 37.2 53 -5.7 21.8
03:50 1011 29.85 840 24.81 3 37.3 54 -5.5 22
03:55 1011 29.85 840 24.81 2.9 37.2 54 -5.5 22.1
04:00 1011 29.85 840 24.81 2.7 36.9 54 -5.6 21.8
04:05 1011 29.85 840 24.81 2.6 36.7 54 -5.7 21.7
04:10 1011 29.85 840 24.81 2.6 36.7 54 -5.8 21.6
04:15 1011 29.85 840 24.81 2.7 36.8 53 -5.9 21.4
04:20 1011 29.85 840 24.81 2.8 37 53 -5.9 21.4
04:25 1011 29.85 840 24.81 2.7 36.9 52 -6.1 21.1
04:30 1011 29.85 840 24.81 2.7 36.8 52 -6.1 21
04:35 1011 29.85 840 24.81 2.7 36.8 52 -6.2 20.8
04:40 1011 29.85 840 24.81 2.7 36.9 51 -6.4 20.4
04:45 1011 29.85 840 24.81 2.7 36.9 51 -6.4 20.5
04:50 1011 29.85 840 24.81 2.8 37 50 -6.5 20.3
04:55 1011 29.85 840 24.81 2.7 36.9 51 -6.5 20.4
05:00 1011 29.85 840 24.81 2.6 36.7 51 -6.4 20.5
05:05 1011 29.85 840 24.81 2.5 36.6 52 -6.4 20.5
05:10 1011 29.85 840 24.81 2.5 36.4 53 -6.2 20.8
05:15 1011 29.85 840 24.81 2.3 36.2 53 -6.4 20.5
05:20 1011 29.85 840 24.81 2.3 36.2 52 -6.5 20.4
05:25 1011 29.85 840 24.81 2.4 36.3 52 -6.4 20.4
05:30 1011 29.85 840 24.81 2.3 36.1 53 -6.4 20.5
05:35 1011 29.85 840 24.81 2.2 36 52 -6.6 20.2
05:40 1011 29.85 840 24.81 2.2 36 52 -6.7 20
05:45 1011 29.85 840 24.81 2.2 36 51 -7 19.4
05:50 1011 29.85 840 24.81 2.4 36.3 48 -7.5 18.6
05:55 1011 29.85 840 24.81 2.7 36.8 47 -7.4 18.6
06:00 1011 29.85 840 24.81 2.6 36.8 49 -7.1 19.2
06:05 1011 29.85 840 24.81 2.4 36.4 49 -7.2 19
06:10 1011 29.85 841 24.83 2.3 36.2 49 -7.3 18.9
06:15 1011 29.85 841 24.83 2.3 36.1 50 -7.1 19.1
06:20 1011 29.85 841 24.83 2.2 36 50 -7.2 19.1
06:25 1011 29.85 841 24.83 2.2 35.9 51 -6.8 19.7
06:30 1011 29.85 841 24.83 2 35.6 53 -6.5 20.4
06:35 1012 29.88 841 24.83 1.8 35.2 55 -6.4 20.4
06:40 1012 29.88 841 24.83 1.7 35.1 52 -7 19.3
06:45 1011 29.85 841 24.83 2 35.5 49 -7.6 18.3
06:50 1011 29.85 841 24.83 2.3 36.1 48 -7.7 18.2
06:55 1011 29.85 841 24.83 2.4 36.3 48 -7.6 18.4
07:00 1011 29.85 841 24.83 2.5 36.4 48 -7.4 18.6
07:05 1012 29.88 841 24.83 2.4 36.4 48 -7.4 18.7
07:10 1012 29.88 841 24.83 2.5 36.4 48 -7.6 18.4
07:15 1012 29.88 841 24.83 2.5 36.5 48 -7.4 18.7
07:20 1012 29.88 841 24.83 2.4 36.4 48 -7.6 18.3
07:25 1012 29.88 841 24.83 2.6 36.7 47 -7.7 18.2
07:30 1012 29.88 841 24.83 2.7 36.9 47 -7.4 18.7
07:35 1012 29.88 841 24.83 2.6 36.6 48 -7.3 18.8
07:40 1012 29.88 841 24.83 2.5 36.6 49 -7.2 19.1
07:45 1012 29.88 841 24.83 2.6 36.6 48 -7.3 18.8
07:50 1012 29.88 841 24.83 2.6 36.6 48 -7.3 18.8
07:55 1012 29.88 841 24.83 2.6 36.7 49 -7.2 19
08:00 1012 29.88 841 24.83 2.6 36.7 48 -7.3 18.9
08:05 1012 29.88 841 24.83 2.7 36.9 47 -7.5 18.5
08:10 1012 29.88 841 24.83 2.8 37 46 -7.7 18.1
08:15 1012 29.88 841 24.83 2.9 37.2 46 -7.6 18.4
08:20 1012 29.88 841 24.83 3 37.4 45 -7.8 18
08:25 1012 29.88 841 24.83 3.1 37.7 45 -7.6 18.3
08:30 1012 29.88 841 24.83 3.3 37.9 45 -7.5 18.6
08:35 1012 29.88 841 24.83 3.4 38.1 45 -7.5 18.6
08:40 1012 29.88 841 24.83 3.6 38.5 43 -8 17.6
08:45 1012 29.88 841 24.83 3.8 38.9 42 -7.9 17.8
08:50 1012 29.88 841 24.83 4 39.3 40 -8.3 17
08:55 1011 29.85 841 24.83 4.3 39.7 39 -8.5 16.7
09:00 1011 29.85 841 24.83 4.4 39.9 38 -8.8 16.2
09:05 1011 29.85 841 24.83 4.6 40.4 36 -9.1 15.7
09:10 1011 29.85 841 24.83 5 40.9 35 -9.3 15.3
09:15 1011 29.85 841 24.83 5.1 41.3 35 -9.2 15.4
09:20 1011 29.85 841 24.83 5.1 41.2 35 -9.2 15.4
09:25 1011 29.85 841 24.83 5.2 41.3 35 -9.1 15.6
09:30 1011 29.85 841 24.83 5.4 41.6 34 -9.3 15.2
09:35 1011 29.85 841 24.83 5.5 41.9 32 -9.8 14.4
09:40 1011 29.85 841 24.83 5.3 41.6 32 -10.2 13.6
09:45 1011 29.85 841 24.83 5.2 41.4 33 -9.8 14.4
09:50 1011 29.85 841 24.83 5.5 41.8 33 -9.4 15
09:55 1011 29.85 840 24.81 5.8 42.5 31 -10 14
10:00 1011 29.85 840 24.81 5.6 42.1 32 -9.8 14.3
10:05 1011 29.85 840 24.81 5.8 42.4 31 -10.2 13.7
10:10 1011 29.85 840 24.81 5.8 42.5 31 -10.2 13.6
10:15 1011 29.85 840 24.81 5.9 42.7 31 -10 14.1
10:20 1011 29.85 840 24.81 6.2 43.2 29 -10.4 13.3
10:25 1011 29.85 840 24.81 6.5 43.7 26 -11.7 10.9
10:30 1011 29.85 840 24.81 6.5 43.8 26 -11.5 11.4
10:35 1011 29.85 840 24.81 6.7 44.1 25 -12 10.4
10:40 1011 29.85 840 24.81 6.6 44 27 -11 12.3
10:45 1011 29.85 840 24.81 6.6 43.8 25 -12.1 10.3
10:50 1011 29.85 840 24.81 6.6 43.8 26 -11.6 11.1
10:55 1011 29.85 840 24.81 6.7 44.1 26 -11.6 11.1
11:00 1011 29.85 840 24.81 6.8 44.2 26 -11.4 11.5
11:05 1011 29.85 840 24.81 6.9 44.5 24 -12.3 9.9
11:10 1011 29.85 840 24.81 6.7 44.1 25 -11.8 10.8
11:15 1011 29.85 840 24.81 6.8 44.3 26 -11.4 11.5
11:20 1011 29.85 840 24.81 6.9 44.5 24 -12.1 10.1
11:25 1011 29.85 840 24.81 7 44.6 25 -11.9 10.6
11:30 1011 29.85 840 24.81 7.1 44.7 24 -12.1 10.3
11:35 1010 29.83 840 24.81 7.1 44.8 24 -11.9 10.6
11:40 1010 29.83 840 24.81 7.2 44.9 24 -12 10.4
11:45 1010 29.83 840 24.81 7.1 44.8 24 -12.1 10.2
11:50 1010 29.83 840 24.81 7.1 44.8 24 -12.1 10.2
11:55 1010 29.83 840 24.81 7.2 44.9 25 -11.9 10.7
12:00 1010 29.83 840 24.81 7.2 44.9 25 -11.6 11
12:05 1010 29.83 840 24.81 7.5 45.4 24 -11.6 11.1
12:10 1010 29.83 839 24.78 7.7 45.9 24 -11.8 10.7
12:15 1010 29.83 839 24.78 7.5 45.5 24 -11.8 10.7
12:20 1010 29.83 839 24.78 7.2 45 25 -11.8 10.8
12:25 1010 29.83 839 24.78 7.3 45.2 25 -11.7 11
12:30 1010 29.83 839 24.78 7.2 44.9 23 -12.4 9.6
12:35 1010 29.83 839 24.78 7.1 44.8 24 -12.1 10.2
12:40 1010 29.83 839 24.78 7.1 44.8 24 -11.9 10.5
12:45 1010 29.83 839 24.78 7 44.7 24 -12.1 10.3
12:50 1010 29.83 839 24.78 7.1 44.9 24 -12 10.5
12:55 1010 29.83 839 24.78 7.3 45.1 24 -12.1 10.1
13:00 1010 29.83 839 24.78 7.3 45.2 24 -12.2 10
13:05 1010 29.83 839 24.78 7.2 45 24 -12 10.4
13:10 1009 29.8 839 24.78 7.4 45.3 24 -12 10.5
13:15 1009 29.8 839 24.78 7.5 45.6 23 -12.3 9.8
13:20 1009 29.8 839 24.78 7.4 45.3 22 -12.9 8.7
13:25 1009 29.8 839 24.78 7.6 45.6 23 -12.2 10.1
13:30 1009 29.8 838 24.75 7.7 45.8 24 -11.9 10.6
13:35 1009 29.8 838 24.75 7.6 45.7 23 -12.3 9.9
13:40 1009 29.8 838 24.75 7.7 45.8 24 -11.7 10.9
13:45 1009 29.8 838 24.75 7.7 45.8 24 -11.8 10.8
13:50 1009 29.8 838 24.75 7.7 45.8 23 -12 10.5
13:55 1009 29.8 838 24.75 7.6 45.7 23 -12.1 10.2
14:00 1009 29.8 838 24.75 7.5 45.5 23 -12.3 9.9
14:05 1009 29.8 838 24.75 7.5 45.5 23 -12.1 10.2
14:10 1009 29.8 838 24.75 7.7 45.8 24 -11.9 10.5
14:15 1009 29.8 838 24.75 7.6 45.6 24 -11.7 10.9
14:20 1009 29.8 838 24.75 7.6 45.6 24 -11.8 10.7
14:25 1009 29.8 838 24.75 7.5 45.5 24 -11.9 10.7
14:30 1008 29.77 838 24.75 7.6 45.6 24 -11.9 10.6
14:35 1008 29.77 838 24.75 7.6 45.6 24 -11.7 11
14:40 1008 29.77 837 24.72 7.7 45.8 24 -11.5 11.3
14:45 1008 29.77 837 24.72 7.6 45.7 24 -11.6 11.1
14:50 1008 29.77 837 24.72 7.5 45.5 25 -11.4 11.4
14:55 1008 29.77 837 24.72 7.5 45.4 25 -11.4 11.5
15:00 1008 29.77 837 24.72 7.4 45.3 24 -11.9 10.5
15:05 1008 29.77 837 24.72 7.5 45.4 24 -11.7 11
15:10 1008 29.77 837 24.72 7.4 45.3 25 -11.3 11.6
15:15 1008 29.77 837 24.72 7.3 45.2 24 -12.2 10
15:20 1008 29.77 837 24.72 7.4 45.3 25 -11.4 11.5
15:25 1008 29.77 837 24.72 7.4 45.4 24 -11.7 10.9
15:30 1007 29.74 837 24.72 7.4 45.4 24 -11.9 10.5
15:35 1007 29.74 836 24.69 7.5 45.5 25 -11.6 11.2
15:40 1007 29.74 836 24.69 7.5 45.5 26 -10.9 12.4
15:45 1007 29.74 836 24.69 7.4 45.4 26 -10.9 12.3
15:50 1007 29.74 836 24.69 7.3 45.1 27 -10.5 13
15:55 1007 29.74 836 24.69 7.3 45.1 24 -11.8 10.7
16:00 1007 29.74 836 24.69 7.4 45.3 25 -11.3 11.7
16:05 1007 29.74 836 24.69 7.5 45.5 26 -10.8 12.6
16:10 1007 29.74 836 24.69 7.5 45.4 26 -10.6 12.9
16:15 1007 29.74 836 24.69 7.6 45.7 26 -10.7 12.7
16:20 1007 29.74 836 24.69 7.6 45.7 26 -10.9 12.4
16:25 1007 29.74 836 24.69 7.7 45.9 24 -11.5 11.4
16:30 1006 29.71 836 24.69 7.6 45.6 24 -11.7 11
16:35 1006 29.71 836 24.69 7.6 45.6 26 -10.9 12.4
16:40 1006 29.71 835 24.66 7.6 45.6 25 -11.3 11.6
16:45 1006 29.71 835 24.66 7.5 45.5 25 -11.5 11.3
16:50 1006 29.71 835 24.66 7.6 45.6 25 -11.3 11.7
16:55 1006 29.71 835 24.66 7.7 45.9 24 -11.6 11.1
17:00 1006 29.71 835 24.66 7.7 45.8 25 -11 12.2
17:05 1006 29.71 835 24.66 7.8 46.1 25 -11.2 11.9
17:10 1006 29.71 835 24.66 7.7 45.9 24 -11.7 10.9
17:15 1006 29.71 835 24.66 7.6 45.8 25 -11.3 11.7
17:20 1006 29.71 835 24.66 7.6 45.6 23 -12.1 10.2
17:25 1006 29.71 835 24.66 7.6 45.6 25 -11.4 11.5
17:30 1006 29.71 835 24.66 7.6 45.7 24 -11.6 11.2
17:35 1006 29.71 835 24.66 7.5 45.5 25 -11.3 11.7
17:40 1006 29.71 835 24.66 7.3 45.1 25 -11.5 11.2
17:45 1005 29.68 835 24.66 7.3 45.1 26 -11.2 11.8
17:50 1005 29.68 835 24.66 7.2 45 26 -11.1 12
17:55 1005 29.68 835 24.66 7 44.6 27 -10.9 12.4
18:00 1005 29.68 835 24.66 6.8 44.2 27 -10.9 12.3
18:05 1005 29.68 835 24.66 6.7 44.1 26 -11.4 11.5
18:10 1005 29.68 835 24.66 6.7 44 26 -11.6 11.1
18:15 1005 29.68 835 24.66 6.6 43.8 26 -11.7 11
18:20 1005 29.68 835 24.66 6.4 43.6 26 -11.7 10.9
18:25 1005 29.68 835 24.66 6.3 43.4 27 -11.6 11.2
18:30 1005 29.68 834 24.63 6.3 43.3 27 -11.5 11.3
18:35 1005 29.68 834 24.63 6.1 43 28 -11.2 11.9
18:40 1005 29.68 834 24.63 6.2 43.1 27 -11.5 11.3
18:45 1005 29.68 835 24.66 6.2 43.2 28 -11 12.2
18:50 1005 29.68 835 24.66 6.2 43.1 28 -10.9 12.5
18:55 1005 29.68 835 24.66 6.2 43.1 29 -10.5 13.2
19:00 1005 29.68 835 24.66 6.1 43 31 -9.8 14.3
19:05 1005 29.68 835 24.66 5.9 42.6 33 -9.4 15.1
19:10 1005 29.68 835 24.66 5.8 42.5 34 -8.7 16.3
19:15 1006 29.71 835 24.66 5.7 42.3 37 -8 17.7
19:20 1006 29.71 835 24.66 5.5 42 38 -7.6 18.4
19:25 1006 29.71 835 24.66 5.4 41.8 40 -7.1 19.1
19:30 1006 29.71 835 24.66 5.3 41.5 42 -6.6 20.1
19:35 1006 29.71 835 24.66 5 41.1 45 -6 21.2
19:40 1006 29.71 835 24.66 4.8 40.7 46 -5.7 21.7
19:45 1006 29.71 835 24.66 4.7 40.5 48 -5.3 22.4
19:50 1006 29.71 835 24.66 4.4 40 52 -4.6 23.7
19:55 1006 29.71 835 24.66 3.9 39.1 59 -3.3 26.1
20:00 1006 29.71 835 24.66 3.3 37.9 65 -2.7 27.1
20:05 1006 29.71 835 24.66 2.9 37.2 69 -2.3 27.9
20:10 1006 29.71 835 24.66 2.6 36.7 71 -2.1 28.2
20:15 1006 29.71 835 24.66 2.4 36.3 72 -2.1 28.2
20:20 1006 29.71 835 24.66 2.2 35.9 76 -1.6 29
20:25 1006 29.71 835 24.66 1.9 35.4 78 -1.5 29.3
20:30 1006 29.71 835 24.66 1.7 35.1 79 -1.5 29.3
20:35 1006 29.71 835 24.66 1.6 34.9 79 -1.6 29.2
20:40 1005 29.68 835 24.66 1.6 34.9 79 -1.6 29.2
20:45 1005 29.68 834 24.63 1.5 34.7 79 -1.8 28.7
20:50 1005 29.68 834 24.63 1.6 34.9 76 -2.2 28.1
20:55 1005 29.68 834 24.63 1.9 35.5 72 -2.6 27.4
21:00 1005 29.68 834 24.63 2.2 35.9 69 -3 26.6
21:05 1005 29.68 834 24.63 2.4 36.4 66 -3.3 26.1
21:10 1005 29.68 834 24.63 2.8 37 64 -3.4 25.8
21:15 1005 29.68 834 24.63 2.9 37.2 64 -3.4 25.9
21:20 1005 29.68 834 24.63 3.1 37.5 59 -4.1 24.6
21:25 1004 29.65 834 24.63 3.1 37.6 61 -3.7 25.3
21:30 1004 29.65 834 24.63 3 37.4 60 -4 24.8
21:35 1004 29.65 834 24.63 3.1 37.7 58 -4.3 24.3
21:40 1004 29.65 833 24.6 3.2 37.8 58 -4.3 24.2
21:45 1004 29.65 833 24.6 3.4 38.1 57 -4.3 24.2
21:50 1004 29.65 833 24.6 3.4 38.1 57 -4.4 24.1
21:55 1004 29.65 833 24.6 3.4 38.2 55 -4.9 23.2
22:00 1004 29.65 833 24.6 3.7 38.7 51 -5.4 22.2
22:05 1004 29.65 833 24.6 4 39.2 50 -5.6 22
22:10 1004 29.65 833 24.6 4.1 39.4 49 -5.6 21.9
22:15 1004 29.65 833 24.6 4.2 39.5 50 -5.3 22.5
22:20 1004 29.65 833 24.6 3.9 39 53 -4.9 23.2
22:25 1004 29.65 833 24.6 3.6 38.5 54 -4.9 23.1
22:30 1004 29.65 833 24.6 3.6 38.4 54 -4.8 23.4
22:35 1004 29.65 833 24.6 3.6 38.5 55 -4.6 23.7
22:40 1004 29.65 833 24.6 3.4 38.2 57 -4.4 24.1
22:45 1004 29.65 833 24.6 3.2 37.8 59 -4.1 24.6
22:50 1003 29.62 833 24.6 3.1 37.6 59 -4 24.8
22:55 1003 29.62 833 24.6 3 37.4 62 -3.6 25.5
23:00 1003 29.62 833 24.6 2.7 36.9 64 -3.4 25.8
23:05 1003 29.62 832 24.57 2.5 36.6 64 -3.7 25.4
23:10 1003 29.62 832 24.57 2.6 36.7 64 -3.6 25.6
23:15 1003 29.62 832 24.57 2.7 36.9 63 -3.7 25.3
23:20 1003 29.62 832 24.57 2.8 37.1 63 -3.6 25.5
23:25 1003 29.62 832 24.57 2.8 37.1 64 -3.3 26
23:30 1003 29.62 832 24.57 2.6 36.7 65 -3.3 26.1
23:35 1003 29.62 832 24.57 2.5 36.5 66 -3.2 26.2
23:40 1003 29.62 832 24.57 2.5 36.6 66 -3.1 26.4
23:45 1003 29.62 832 24.57 2.5 36.5 66 -3.2 26.3
23:50 1003 29.62 832 24.57 2.5 36.5 66 -3.1 26.4
23:55 1003 29.62 832 24.57 2.4 36.3 67 -3.1 26.4
24:00 1003 29.62 832 24.57 2.4 36.3 68 -3 26.7